sensor_id;sensor_type;location;lat;lon;timestamp;pressure;altitude;pressure_sealevel;temperature;humidity
68941;BME280;55982;51.476;7.552;2022-11-20T00:03:31;99377.63;;;-3.61;100.00
68941;BME280;55982;51.476;7.552;2022-11-20T00:06:08;99377.78;;;-3.49;100.00
68941;BME280;55982;51.476;7.552;2022-11-20T00:08:34;99379.84;;;-3.27;100.00
68941;BME280;55982;51.476;7.552;2022-11-20T00:11:08;99377.66;;;-3.02;100.00
68941;BME280;55982;51.476;7.552;2022-11-20T00:13:34;99372.66;;;-2.91;100.00
68941;BME280;55982;51.476;7.552;2022-11-20T00:16:01;99384.84;;;-2.70;100.00
68941;BME280;55982;51.476;7.552;2022-11-20T00:18:27;99378.22;;;-2.56;100.00
68941;BME280;55982;51.476;7.552;2022-11-20T00:20:52;99376.63;;;-2.45;100.00
68941;BME280;55982;51.476;7.552;2022-11-20T00:23:18;99375.97;;;-2.31;100.00
68941;BME280;55982;51.476;7.552;2022-11-20T00:25:43;99374.38;;;-2.17;100.00
68941;BME280;55982;51.476;7.552;2022-11-20T00:28:08;99377.06;;;-2.05;100.00
68941;BME280;55982;51.476;7.552;2022-11-20T00:30:34;99381.41;;;-1.98;100.00
68941;BME280;55982;51.476;7.552;2022-11-20T00:32:59;99376.31;;;-1.95;100.00
68941;BME280;55982;51.476;7.552;2022-11-20T00:35:24;99381.50;;;-1.86;100.00
68941;BME280;55982;51.476;7.552;2022-11-20T00:37:50;99376.44;;;-1.79;100.00
68941;BME280;55982;51.476;7.552;2022-11-20T00:40:15;99377.38;;;-1.71;100.00
68941;BME280;55982;51.476;7.552;2022-11-20T00:42:40;99377.44;;;-1.61;100.00
68941;BME280;55982;51.476;7.552;2022-11-20T00:45:06;99377.44;;;-1.61;100.00
68941;BME280;55982;51.476;7.552;2022-11-20T00:47:32;99373.25;;;-1.51;100.00
68941;BME280;55982;51.476;7.552;2022-11-20T00:49:57;99378.47;;;-1.42;100.00
68941;BME280;55982;51.476;7.552;2022-11-20T00:52:22;99363.97;;;-1.34;100.00
68941;BME280;55982;51.476;7.552;2022-11-20T00:54:48;99370.84;;;-1.33;100.00
68941;BME280;55982;51.476;7.552;2022-11-20T00:57:13;99367.44;;;-1.28;100.00
68941;BME280;55982;51.476;7.552;2022-11-20T00:59:38;99365.75;;;-1.27;100.00
68941;BME280;55982;51.476;7.552;2022-11-20T01:02:04;99363.19;;;-1.27;100.00
68941;BME280;55982;51.476;7.552;2022-11-20T01:04:29;99361.47;;;-1.25;100.00
68941;BME280;55982;51.476;7.552;2022-11-20T01:06:54;99370.06;;;-1.20;100.00
68941;BME280;55982;51.476;7.552;2022-11-20T01:09:20;99377.84;;;-1.07;100.00
68941;BME280;55982;51.476;7.552;2022-11-20T01:11:45;99371.88;;;-1.01;100.00
68941;BME280;55982;51.476;7.552;2022-11-20T01:14:13;99373.63;;;-0.97;100.00
68941;BME280;55982;51.476;7.552;2022-11-20T01:16:42;99360.78;;;-0.96;100.00
68941;BME280;55982;51.476;7.552;2022-11-20T01:19:14;99366.75;;;-1.01;100.00
68941;BME280;55982;51.476;7.552;2022-11-20T01:21:41;99360.78;;;-0.97;100.00
68941;BME280;55982;51.476;7.552;2022-11-20T01:24:10;99359.97;;;-0.87;100.00
68941;BME280;55982;51.476;7.552;2022-11-20T01:26:38;99355.75;;;-0.79;100.00
68941;BME280;55982;51.476;7.552;2022-11-20T01:29:04;99360.06;;;-0.66;100.00
68941;BME280;55982;51.476;7.552;2022-11-20T01:31:32;99362.66;;;-0.66;100.00
68941;BME280;55982;51.476;7.552;2022-11-20T01:34:00;99365.25;;;-0.60;100.00
68941;BME280;55982;51.476;7.552;2022-11-20T01:36:28;99354.94;;;-0.63;100.00
68941;BME280;55982;51.476;7.552;2022-11-20T01:38:56;99363.50;;;-0.64;100.00
68941;BME280;55982;51.476;7.552;2022-11-20T01:41:23;99364.44;;;-0.47;100.00
68941;BME280;55982;51.476;7.552;2022-11-20T01:44:11;99368.72;;;-0.40;100.00
68941;BME280;55982;51.476;7.552;2022-11-20T01:46:40;99358.47;;;-0.37;100.00
68941;BME280;55982;51.476;7.552;2022-11-20T01:49:18;99360.13;;;-0.48;100.00
68941;BME280;55982;51.476;7.552;2022-11-20T01:51:55;99349.84;;;-0.60;100.00
68941;BME280;55982;51.476;7.552;2022-11-20T01:54:29;99342.03;;;-0.75;100.00
68941;BME280;55982;51.476;7.552;2022-11-20T01:56:57;99342.94;;;-0.67;100.00
68941;BME280;55982;51.476;7.552;2022-11-20T01:59:25;99330.13;;;-0.65;100.00
68941;BME280;55982;51.476;7.552;2022-11-20T02:01:52;99332.72;;;-0.46;100.00
68941;BME280;55982;51.476;7.552;2022-11-20T02:04:18;99332.75;;;-0.40;100.00
68941;BME280;55982;51.476;7.552;2022-11-20T02:06:48;99320.75;;;-0.44;100.00
68941;BME280;55982;51.476;7.552;2022-11-20T02:09:15;99319.06;;;-0.39;100.00
68941;BME280;55982;51.476;7.552;2022-11-20T02:11:40;99320.78;;;-0.35;100.00
68941;BME280;55982;51.476;7.552;2022-11-20T02:14:06;99318.25;;;-0.20;100.00
68941;BME280;55982;51.476;7.552;2022-11-20T02:16:39;99319.13;;;-0.09;100.00
68941;BME280;55982;51.476;7.552;2022-11-20T02:19:11;99308.81;;;-0.07;100.00
68941;BME280;55982;51.476;7.552;2022-11-20T02:21:49;99315.69;;;0.05;100.00
68941;BME280;55982;51.476;7.552;2022-11-20T02:24:19;99308.84;;;0.07;100.00
68941;BME280;55982;51.476;7.552;2022-11-20T02:27:22;99323.41;;;0.06;100.00
68941;BME280;55982;51.476;7.552;2022-11-20T02:29:53;99318.28;;;0.17;100.00
68941;BME280;55982;51.476;7.552;2022-11-20T02:32:34;99325.97;;;0.14;100.00
68941;BME280;55982;51.476;7.552;2022-11-20T02:35:55;99319.13;;;0.16;100.00
68941;BME280;55982;51.476;7.552;2022-11-20T02:37:56;99320.84;;;0.17;100.00
68941;BME280;55982;51.476;7.552;2022-11-20T02:40:23;99316.56;;;0.26;100.00
68941;BME280;55982;51.476;7.552;2022-11-20T02:42:55;99312.25;;;0.30;100.00
68941;BME280;55982;51.476;7.552;2022-11-20T02:45:21;99307.09;;;0.39;100.00
68941;BME280;55982;51.476;7.552;2022-11-20T02:47:47;99317.38;;;0.45;100.00
68941;BME280;55982;51.476;7.552;2022-11-20T02:50:13;99305.38;;;0.47;100.00
68941;BME280;55982;51.476;7.552;2022-11-20T02:52:38;99301.94;;;0.57;100.00
68941;BME280;55982;51.476;7.552;2022-11-20T02:55:04;99305.34;;;0.56;100.00
68941;BME280;55982;51.476;7.552;2022-11-20T02:57:29;99305.38;;;0.53;100.00
68941;BME280;55982;51.476;7.552;2022-11-20T02:59:55;99315.66;;;0.62;100.00
68941;BME280;55982;51.476;7.552;2022-11-20T03:02:21;99307.06;;;0.69;100.00
68941;BME280;55982;51.476;7.552;2022-11-20T03:04:46;99301.91;;;0.66;100.00
68941;BME280;55982;51.476;7.552;2022-11-20T03:07:12;99295.06;;;0.62;100.00
68941;BME280;55982;51.476;7.552;2022-11-20T03:09:37;99280.50;;;0.59;100.00
68941;BME280;55982;51.476;7.552;2022-11-20T03:12:03;99296.78;;;0.60;100.00
68941;BME280;55982;51.476;7.552;2022-11-20T03:14:28;99305.38;;;0.65;100.00
68941;BME280;55982;51.476;7.552;2022-11-20T03:16:53;99303.66;;;0.67;100.00
68941;BME280;55982;51.476;7.552;2022-11-20T03:19:19;99295.91;;;0.68;100.00
68941;BME280;55982;51.476;7.552;2022-11-20T03:21:44;99296.78;;;0.60;100.00
68941;BME280;55982;51.476;7.552;2022-11-20T03:24:09;99294.19;;;0.60;100.00
68941;BME280;55982;51.476;7.552;2022-11-20T03:26:35;99296.78;;;0.66;100.00
68941;BME280;55982;51.476;7.552;2022-11-20T03:29:02;99290.78;;;0.73;100.00
68941;BME280;55982;51.476;7.552;2022-11-20T03:31:31;99282.19;;;0.74;100.00
68941;BME280;55982;51.476;7.552;2022-11-20T03:33:57;99275.31;;;0.74;100.00
68941;BME280;55982;51.476;7.552;2022-11-20T03:36:24;99283.03;;;0.76;100.00
68941;BME280;55982;51.476;7.552;2022-11-20T03:38:50;99264.16;;;0.74;100.00
68941;BME280;55982;51.476;7.552;2022-11-20T03:41:20;99271.03;;;0.72;100.00
68941;BME280;55982;51.476;7.552;2022-11-20T03:43:50;99271.00;;;0.78;100.00
68941;BME280;55982;51.476;7.552;2022-11-20T03:46:16;99271.00;;;0.82;100.00
68941;BME280;55982;51.476;7.552;2022-11-20T03:48:41;99265.84;;;0.81;100.00
68941;BME280;55982;51.476;7.552;2022-11-20T03:51:13;99263.28;;;0.84;100.00
68941;BME280;55982;51.476;7.552;2022-11-20T03:53:40;99258.97;;;0.86;100.00
68941;BME280;55982;51.476;7.552;2022-11-20T03:56:07;99265.81;;;0.87;100.00
68941;BME280;55982;51.476;7.552;2022-11-20T03:58:37;99264.97;;;0.88;100.00
68941;BME280;55982;51.476;7.552;2022-11-20T04:01:09;99276.09;;;0.93;100.00
68941;BME280;55982;51.476;7.552;2022-11-20T04:03:35;99268.41;;;0.87;100.00
68941;BME280;55982;51.476;7.552;2022-11-20T04:06:06;99272.69;;;0.89;100.00
68941;BME280;55982;51.476;7.552;2022-11-20T04:08:32;99268.41;;;0.87;100.00
68941;BME280;55982;51.476;7.552;2022-11-20T04:11:20;99260.69;;;0.87;100.00
68941;BME280;55982;51.476;7.552;2022-11-20T04:13:58;99269.28;;;0.86;100.00
68941;BME280;55982;51.476;7.552;2022-11-20T04:16:25;99259.81;;;0.86;100.00
68941;BME280;55982;51.476;7.552;2022-11-20T04:18:55;99264.13;;;0.86;100.00
68941;BME280;55982;51.476;7.552;2022-11-20T04:21:21;99265.81;;;0.93;100.00
68941;BME280;55982;51.476;7.552;2022-11-20T04:23:48;99260.66;;;0.93;100.00
68941;BME280;55982;51.476;7.552;2022-11-20T04:26:13;99265.81;;;0.93;100.00
68941;BME280;55982;51.476;7.552;2022-11-20T04:28:39;99269.25;;;0.93;100.00
68941;BME280;55982;51.476;7.552;2022-11-20T04:31:13;99262.38;;;0.91;100.00
68941;BME280;55982;51.476;7.552;2022-11-20T04:33:39;99262.44;;;0.76;100.00
68941;BME280;55982;51.476;7.552;2022-11-20T04:36:20;99259.84;;;0.76;100.00
68941;BME280;55982;51.476;7.552;2022-11-20T04:38:45;99262.41;;;0.85;100.00
68941;BME280;55982;51.476;7.552;2022-11-20T04:41:18;99264.09;;;0.89;100.00
68941;BME280;55982;51.476;7.552;2022-11-20T04:43:51;99267.56;;;0.88;100.00
68941;BME280;55982;51.476;7.552;2022-11-20T04:46:18;99262.41;;;0.88;100.00
68941;BME280;55982;51.476;7.552;2022-11-20T04:48:44;99264.97;;;0.85;100.00
68941;BME280;55982;51.476;7.552;2022-11-20T04:51:09;99260.69;;;0.81;100.00
68941;BME280;55982;51.476;7.552;2022-11-20T04:53:35;99265.84;;;0.85;100.00
68941;BME280;55982;51.476;7.552;2022-11-20T04:56:01;99270.16;;;0.70;100.00
68941;BME280;55982;51.476;7.552;2022-11-20T04:58:27;99273.59;;;0.76;100.00
68941;BME280;55982;51.476;7.552;2022-11-20T05:00:52;99264.97;;;0.79;100.00
68941;BME280;55982;51.476;7.552;2022-11-20T05:03:17;99265.88;;;0.78;100.00
68941;BME280;55982;51.476;7.552;2022-11-20T05:05:43;99264.16;;;0.74;100.00
68941;BME280;55982;51.476;7.552;2022-11-20T05:08:08;99269.28;;;0.80;100.00
68941;BME280;55982;51.476;7.552;2022-11-20T05:10:33;99269.28;;;0.86;100.00
68941;BME280;55982;51.476;7.552;2022-11-20T05:12:59;99270.97;;;0.90;100.00
68941;BME280;55982;51.476;7.552;2022-11-20T05:15:24;99274.44;;;0.80;100.00
68941;BME280;55982;51.476;7.552;2022-11-20T05:17:51;99274.41;;;0.83;100.00
68941;BME280;55982;51.476;7.552;2022-11-20T05:20:17;99270.16;;;0.76;100.00
68941;BME280;55982;51.476;7.552;2022-11-20T05:22:43;99269.28;;;0.77;100.00
68941;BME280;55982;51.476;7.552;2022-11-20T05:25:09;99263.28;;;0.73;100.00
68941;BME280;55982;51.476;7.552;2022-11-20T05:27:34;99270.16;;;0.71;100.00
68941;BME280;55982;51.476;7.552;2022-11-20T05:30:00;99265.03;;;0.68;100.00
68941;BME280;55982;51.476;7.552;2022-11-20T05:32:25;99265.03;;;0.62;100.00
68941;BME280;55982;51.476;7.552;2022-11-20T05:34:51;99259.03;;;0.62;100.00
68941;BME280;55982;51.476;7.552;2022-11-20T05:37:17;99253.91;;;0.59;100.00
68941;BME280;55982;51.476;7.552;2022-11-20T05:39:42;99261.63;;;0.48;100.00
68941;BME280;55982;51.476;7.552;2022-11-20T05:42:07;99260.81;;;0.48;100.00
68941;BME280;55982;51.476;7.552;2022-11-20T05:44:51;99261.66;;;0.39;100.00
68941;BME280;55982;51.476;7.552;2022-11-20T05:47:17;99250.56;;;0.27;100.00
68941;BME280;55982;51.476;7.552;2022-11-20T05:49:42;99251.41;;;0.23;100.00
68941;BME280;55982;51.476;7.552;2022-11-20T05:52:07;99260.84;;;0.21;100.00
68941;BME280;55982;51.476;7.552;2022-11-20T05:54:33;99255.69;;;0.15;100.00
68941;BME280;55982;51.476;7.552;2022-11-20T05:56:58;99252.28;;;0.07;100.00
68941;BME280;55982;51.476;7.552;2022-11-20T05:59:23;99253.13;;;-0.04;100.00
68941;BME280;55982;51.476;7.552;2022-11-20T06:01:49;99258.28;;;-0.13;100.00
68941;BME280;55982;51.476;7.552;2022-11-20T06:04:14;99261.69;;;-0.09;100.00
68941;BME280;55982;51.476;7.552;2022-11-20T06:06:39;99260.84;;;-0.19;100.00
68941;BME280;55982;51.476;7.552;2022-11-20T06:09:05;99255.72;;;-0.22;100.00
68941;BME280;55982;51.476;7.552;2022-11-20T06:11:30;99252.28;;;-0.24;100.00
68941;BME280;55982;51.476;7.552;2022-11-20T06:13:56;99252.25;;;-0.27;100.00
68941;BME280;55982;51.476;7.552;2022-11-20T06:16:21;99255.69;;;-0.25;100.00
68941;BME280;55982;51.476;7.552;2022-11-20T06:18:47;99259.13;;;-0.35;100.00
68941;BME280;55982;51.476;7.552;2022-11-20T06:21:18;99250.56;;;-0.43;100.00
68941;BME280;55982;51.476;7.552;2022-11-20T06:23:44;99253.94;;;-0.50;100.00
68941;BME280;55982;51.476;7.552;2022-11-20T06:26:13;99257.41;;;-0.54;100.00
68941;BME280;55982;51.476;7.552;2022-11-20T06:28:39;99257.38;;;-0.58;100.00
68941;BME280;55982;51.476;7.552;2022-11-20T06:31:06;99264.22;;;-0.62;100.00
68941;BME280;55982;51.476;7.552;2022-11-20T06:33:31;99265.91;;;-0.70;100.00
68941;BME280;55982;51.476;7.552;2022-11-20T06:35:58;99259.88;;;-0.78;100.00
68941;BME280;55982;51.476;7.552;2022-11-20T06:38:24;99258.13;;;-0.91;100.00
68941;BME280;55982;51.476;7.552;2022-11-20T06:40:50;99257.25;;;-0.96;100.00
68941;BME280;55982;51.476;7.552;2022-11-20T06:43:15;99260.69;;;-1.00;100.00
68941;BME280;55982;51.476;7.552;2022-11-20T06:45:41;99264.09;;;-1.04;100.00
68941;BME280;55982;51.476;7.552;2022-11-20T06:48:06;99267.44;;;-1.17;100.00
68941;BME280;55982;51.476;7.552;2022-11-20T06:50:32;99274.22;;;-1.28;100.00
68941;BME280;55982;51.476;7.552;2022-11-20T06:53:00;99272.53;;;-1.26;100.00
68941;BME280;55982;51.476;7.552;2022-11-20T06:55:26;99269.09;;;-1.28;100.00
68941;BME280;55982;51.476;7.552;2022-11-20T06:57:51;99269.09;;;-1.31;100.00
68941;BME280;55982;51.476;7.552;2022-11-20T07:00:17;99266.47;;;-1.40;100.00
68941;BME280;55982;51.476;7.552;2022-11-20T07:02:42;99270.75;;;-1.42;100.00
68941;BME280;55982;51.476;7.552;2022-11-20T07:05:07;99274.13;;;-1.46;100.00
68941;BME280;55982;51.476;7.552;2022-11-20T07:07:33;99267.25;;;-1.53;100.00
68941;BME280;55982;51.476;7.552;2022-11-20T07:09:58;99277.50;;;-1.56;100.00
68941;BME280;55982;51.476;7.552;2022-11-20T07:12:23;99270.63;;;-1.57;100.00
68941;BME280;55982;51.476;7.552;2022-11-20T07:14:49;99268.94;;;-1.61;100.00
68941;BME280;55982;51.476;7.552;2022-11-20T07:17:14;99272.31;;;-1.59;100.00
68941;BME280;55982;51.476;7.552;2022-11-20T07:19:40;99279.19;;;-1.55;100.00
68941;BME280;55982;51.476;7.552;2022-11-20T07:22:05;99285.19;;;-1.55;100.00
68941;BME280;55982;51.476;7.552;2022-11-20T07:24:30;99287.78;;;-1.47;100.00
68941;BME280;55982;51.476;7.552;2022-11-20T07:26:55;99286.13;;;-1.42;100.00
68941;BME280;55982;51.476;7.552;2022-11-20T07:29:21;99290.41;;;-1.38;100.00
68941;BME280;55982;51.476;7.552;2022-11-20T07:31:46;99296.50;;;-1.21;100.00
68941;BME280;55982;51.476;7.552;2022-11-20T07:34:11;99292.28;;;-1.10;100.00
68941;BME280;55982;51.476;7.552;2022-11-20T07:36:37;99294.88;;;-1.04;100.00
68941;BME280;55982;51.476;7.552;2022-11-20T07:39:02;99298.28;;;-1.05;100.00
68941;BME280;55982;51.476;7.552;2022-11-20T07:41:28;99296.59;;;-1.03;100.00
68941;BME280;55982;51.476;7.552;2022-11-20T07:43:54;99298.34;;;-0.93;100.00
68941;BME280;55982;51.476;7.552;2022-11-20T07:46:19;99301.81;;;-0.85;100.00
68941;BME280;55982;51.476;7.552;2022-11-20T07:48:44;99296.69;;;-0.79;100.00
68941;BME280;55982;51.476;7.552;2022-11-20T07:51:09;99298.44;;;-0.63;100.00
68941;BME280;55982;51.476;7.552;2022-11-20T07:53:35;99301.91;;;-0.49;100.00
68941;BME280;55982;51.476;7.552;2022-11-20T07:56:01;99291.66;;;-0.31;100.00
68941;BME280;55982;51.476;7.552;2022-11-20T07:58:29;99304.53;;;-0.11;100.00
68941;BME280;55982;51.476;7.552;2022-11-20T08:00:55;99293.41;;;-0.06;100.00
68941;BME280;55982;51.476;7.552;2022-11-20T08:03:20;99289.13;;;0.03;100.00
68941;BME280;55982;51.476;7.552;2022-11-20T08:05:46;99284.00;;;0.13;100.00
68941;BME280;55982;51.476;7.552;2022-11-20T08:08:11;99281.41;;;0.27;100.00
68941;BME280;55982;51.476;7.552;2022-11-20T08:10:37;99284.81;;;0.35;100.00
68941;BME280;55982;51.476;7.552;2022-11-20T08:13:02;99292.53;;;0.41;100.00
68941;BME280;55982;51.476;7.552;2022-11-20T08:15:50;99291.69;;;0.42;100.00
68941;BME280;55982;51.476;7.552;2022-11-20T08:18:16;99293.31;;;0.82;100.00
68941;BME280;55982;51.476;7.552;2022-11-20T08:20:43;99297.06;;;1.92;100.00
68941;BME280;55982;51.476;7.552;2022-11-20T08:23:08;99296.88;;;3.02;100.00
68941;BME280;55982;51.476;7.552;2022-11-20T08:25:36;99291.03;;;4.11;100.00
68941;BME280;55982;51.476;7.552;2022-11-20T08:28:06;99284.13;;;5.08;100.00
68941;BME280;55982;51.476;7.552;2022-11-20T08:30:32;99276.94;;;5.22;100.00
68941;BME280;55982;51.476;7.552;2022-11-20T08:33:03;99277.56;;;6.11;100.00
68941;BME280;55982;51.476;7.552;2022-11-20T08:35:32;99276.19;;;6.65;100.00
68941;BME280;55982;51.476;7.552;2022-11-20T08:37:58;99271.41;;;7.42;100.00
68941;BME280;55982;51.476;7.552;2022-11-20T08:40:23;99270.13;;;7.84;93.87
68941;BME280;55982;51.476;7.552;2022-11-20T08:42:50;99274.06;;;7.70;92.03
68941;BME280;55982;51.476;7.552;2022-11-20T08:45:17;99270.50;;;8.00;93.78
68941;BME280;55982;51.476;7.552;2022-11-20T08:47:43;99282.47;;;8.59;85.28
68941;BME280;55982;51.476;7.552;2022-11-20T08:50:14;99278.31;;;8.78;84.62
68941;BME280;55982;51.476;7.552;2022-11-20T08:52:39;99273.31;;;8.72;79.60
68941;BME280;55982;51.476;7.552;2022-11-20T08:55:06;99267.66;;;9.78;77.34
68941;BME280;55982;51.476;7.552;2022-11-20T08:57:32;99266.34;;;9.67;72.30
68941;BME280;55982;51.476;7.552;2022-11-20T08:59:58;99256.78;;;10.32;69.31
68941;BME280;55982;51.476;7.552;2022-11-20T09:02:24;99258.78;;;10.67;65.45
68941;BME280;55982;51.476;7.552;2022-11-20T09:04:49;99263.31;;;11.23;64.60
68941;BME280;55982;51.476;7.552;2022-11-20T09:07:21;99269.94;;;11.11;63.27
68941;BME280;55982;51.476;7.552;2022-11-20T09:09:46;99264.34;;;11.39;61.76
68941;BME280;55982;51.476;7.552;2022-11-20T09:12:11;99262.81;;;11.72;60.88
68941;BME280;55982;51.476;7.552;2022-11-20T09:14:37;99254.03;;;11.73;61.32
68941;BME280;55982;51.476;7.552;2022-11-20T09:17:02;99268.72;;;11.38;60.06
68941;BME280;55982;51.476;7.552;2022-11-20T09:19:27;99264.50;;;11.91;58.44
68941;BME280;55982;51.476;7.552;2022-11-20T09:21:53;99269.00;;;11.51;58.33
68941;BME280;55982;51.476;7.552;2022-11-20T09:24:19;99269.31;;;11.82;58.85
68941;BME280;55982;51.476;7.552;2022-11-20T09:26:45;99271.03;;;11.83;59.01
68941;BME280;55982;51.476;7.552;2022-11-20T09:29:11;99262.53;;;11.78;57.70
68941;BME280;55982;51.476;7.552;2022-11-20T09:31:36;99266.91;;;11.96;56.09
68941;BME280;55982;51.476;7.552;2022-11-20T09:34:01;99251.06;;;11.80;57.38
68941;BME280;55982;51.476;7.552;2022-11-20T09:36:27;99251.78;;;11.65;55.59
68941;BME280;55982;51.476;7.552;2022-11-20T09:38:52;99251.88;;;11.25;58.43
68941;BME280;55982;51.476;7.552;2022-11-20T09:44:38;99250.19;;;11.43;56.34
68941;BME280;55982;51.476;7.552;2022-11-20T09:46:49;99247.56;;;11.43;56.84
68941;BME280;55982;51.476;7.552;2022-11-20T09:54:45;99234.06;;;11.89;56.09
68941;BME280;55982;51.476;7.552;2022-11-20T09:57:12;99235.59;;;11.93;55.72
68941;BME280;55982;51.476;7.552;2022-11-20T09:59:40;99239.06;;;12.29;53.87
68941;BME280;55982;51.476;7.552;2022-11-20T10:05:00;99234.16;;;11.12;57.88
68941;BME280;55982;51.476;7.552;2022-11-20T10:10:02;99242.94;;;9.19;63.27
68941;BME280;55982;51.476;7.552;2022-11-20T10:12:46;99237.88;;;9.14;65.44
68941;BME280;55982;51.476;7.552;2022-11-20T10:15:49;99226.44;;;10.70;61.34
68941;BME280;55982;51.476;7.552;2022-11-20T10:24:24;99209.41;;;11.56;56.16
68941;BME280;55982;51.476;7.552;2022-11-20T10:26:58;99220.47;;;11.81;56.91
68941;BME280;55982;51.476;7.552;2022-11-20T10:29:33;99208.34;;;11.60;57.47
68941;BME280;55982;51.476;7.552;2022-11-20T10:32:13;99215.97;;;11.66;57.70
68941;BME280;55982;51.476;7.552;2022-11-20T10:34:53;99209.50;;;10.97;58.41
68941;BME280;55982;51.476;7.552;2022-11-20T10:37:27;99219.97;;;9.95;63.17
68941;BME280;55982;51.476;7.552;2022-11-20T10:40:00;99204.88;;;9.37;66.21
68941;BME280;55982;51.476;7.552;2022-11-20T10:42:43;99208.81;;;8.02;70.38
68941;BME280;55982;51.476;7.552;2022-11-20T10:45:19;99209.53;;;7.52;73.85
68941;BME280;55982;51.476;7.552;2022-11-20T10:47:46;99203.75;;;7.14;76.44
68941;BME280;55982;51.476;7.552;2022-11-20T10:50:16;99207.16;;;7.16;78.06
68941;BME280;55982;51.476;7.552;2022-11-20T10:52:56;99208.28;;;6.77;77.62
68941;BME280;55982;51.476;7.552;2022-11-20T10:55:54;99200.16;;;6.25;82.88
68941;BME280;55982;51.476;7.552;2022-11-20T11:01:19;99202.59;;;6.31;83.12
68941;BME280;55982;51.476;7.552;2022-11-20T11:03:48;99200.59;;;5.72;87.07
68941;BME280;55982;51.476;7.552;2022-11-20T11:06:32;99197.97;;;5.73;83.10
68941;BME280;55982;51.476;7.552;2022-11-20T11:09:02;99205.50;;;5.07;85.47
68941;BME280;55982;51.476;7.552;2022-11-20T11:11:30;99203.06;;;5.01;89.97
68941;BME280;55982;51.476;7.552;2022-11-20T11:14:27;99194.72;;;4.87;87.33
68941;BME280;55982;51.476;7.552;2022-11-20T11:16:54;99200.13;;;4.75;90.38
68941;BME280;55982;51.476;7.552;2022-11-20T11:19:20;99197.63;;;4.72;93.70
68941;BME280;55982;51.476;7.552;2022-11-20T11:21:56;99196.59;;;4.79;93.83
68941;BME280;55982;51.476;7.552;2022-11-20T11:24:26;99182.78;;;4.80;91.13
68941;BME280;55982;51.476;7.552;2022-11-20T11:29:29;99164.88;;;4.68;92.27
68941;BME280;55982;51.476;7.552;2022-11-20T11:32:11;99176.78;;;4.78;93.87
68941;BME280;55982;51.476;7.552;2022-11-20T11:34:37;99168.22;;;4.73;94.63
68941;BME280;55982;51.476;7.552;2022-11-20T11:37:03;99161.47;;;4.66;95.19
68941;BME280;55982;51.476;7.552;2022-11-20T11:39:31;99162.91;;;4.79;93.54
68941;BME280;55982;51.476;7.552;2022-11-20T11:42:00;99159.63;;;4.71;95.27
68941;BME280;55982;51.476;7.552;2022-11-20T11:44:32;99152.19;;;4.96;92.92
68941;BME280;55982;51.476;7.552;2022-11-20T11:47:24;99146.13;;;4.97;94.40
68941;BME280;55982;51.476;7.552;2022-11-20T11:50:02;99151.25;;;5.00;93.81
68941;BME280;55982;51.476;7.552;2022-11-20T11:52:28;99145.88;;;5.07;92.27
68941;BME280;55982;51.476;7.552;2022-11-20T11:55:04;99142.41;;;5.46;91.05
68941;BME280;55982;51.476;7.552;2022-11-20T11:57:57;99135.66;;;5.39;90.17
68941;BME280;55982;51.476;7.552;2022-11-20T12:00:27;99128.53;;;5.47;89.78
68941;BME280;55982;51.476;7.552;2022-11-20T12:03:02;99117.84;;;5.26;91.35
68941;BME280;55982;51.476;7.552;2022-11-20T12:05:40;99129.81;;;4.93;92.84
68941;BME280;55982;51.476;7.552;2022-11-20T12:13:21;99110.16;;;5.21;92.58
68941;BME280;55982;51.476;7.552;2022-11-20T12:15:50;99115.06;;;5.33;95.94
68941;BME280;55982;51.476;7.552;2022-11-20T12:18:18;99110.22;;;5.18;91.46
68941;BME280;55982;51.476;7.552;2022-11-20T12:21:24;99105.81;;;5.22;91.92
68941;BME280;55982;51.476;7.552;2022-11-20T12:30:14;99086.00;;;5.54;90.58
68941;BME280;55982;51.476;7.552;2022-11-20T12:52:52;99067.19;;;5.46;90.05
68941;BME280;55982;51.476;7.552;2022-11-20T12:55:46;99061.94;;;5.14;90.45
68941;BME280;55982;51.476;7.552;2022-11-20T12:58:36;99057.50;;;4.81;95.11
68941;BME280;55982;51.476;7.552;2022-11-20T13:01:25;99057.59;;;4.78;96.40
68941;BME280;55982;51.476;7.552;2022-11-20T13:07:08;99054.81;;;4.46;97.55
68941;BME280;55982;51.476;7.552;2022-11-20T13:09:40;99053.53;;;4.25;99.76
68941;BME280;55982;51.476;7.552;2022-11-20T13:12:34;99046.66;;;4.23;100.00
68941;BME280;55982;51.476;7.552;2022-11-20T13:15:32;99045.34;;;4.04;100.00
68941;BME280;55982;51.476;7.552;2022-11-20T13:18:00;99046.41;;;3.94;100.00
68941;BME280;55982;51.476;7.552;2022-11-20T13:20:27;99038.78;;;3.88;100.00
68941;BME280;55982;51.476;7.552;2022-11-20T13:22:56;99026.66;;;3.90;100.00
68941;BME280;55982;51.476;7.552;2022-11-20T13:25:23;99023.50;;;3.74;100.00
68941;BME280;55982;51.476;7.552;2022-11-20T13:27:49;99013.19;;;3.72;100.00
68941;BME280;55982;51.476;7.552;2022-11-20T13:30:18;99010.72;;;3.66;100.00
68941;BME280;55982;51.476;7.552;2022-11-20T13:33:22;99001.09;;;3.75;100.00
68941;BME280;55982;51.476;7.552;2022-11-20T13:36:03;99003.28;;;3.48;100.00
68941;BME280;55982;51.476;7.552;2022-11-20T13:38:47;98991.94;;;3.57;100.00
68941;BME280;55982;51.476;7.552;2022-11-20T13:41:24;98990.13;;;3.60;100.00
68941;BME280;55982;51.476;7.552;2022-11-20T13:46:45;98974.81;;;3.50;100.00
68941;BME280;55982;51.476;7.552;2022-11-20T13:49:32;98973.84;;;3.55;100.00
68941;BME280;55982;51.476;7.552;2022-11-20T13:55:12;98977.50;;;3.45;100.00
68941;BME280;55982;51.476;7.552;2022-11-20T14:01:00;98965.16;;;3.59;100.00
68941;BME280;55982;51.476;7.552;2022-11-20T14:03:32;98957.28;;;3.65;100.00
68941;BME280;55982;51.476;7.552;2022-11-20T14:06:02;98961.91;;;3.48;100.00
68941;BME280;55982;51.476;7.552;2022-11-20T14:08:36;98959.38;;;3.47;100.00
68941;BME280;55982;51.476;7.552;2022-11-20T14:11:20;98956.75;;;3.48;100.00
68941;BME280;55982;51.476;7.552;2022-11-20T14:16:21;98949.88;;;3.47;100.00
68941;BME280;55982;51.476;7.552;2022-11-20T14:18:46;98944.56;;;3.55;100.00
68941;BME280;55982;51.476;7.552;2022-11-20T14:21:21;98930.97;;;3.45;100.00
68941;BME280;55982;51.476;7.552;2022-11-20T14:23:47;98931.25;;;3.30;100.00